AAL8341 MBPV-TNCM
Flight info
| Callsign | AAL8341 |
|---|---|
| Flight time | 1h 22m |
| Altitude | 39000 |
| Route | PVN G648 GTK A555 IDAHO DCT STT B520 PJM |
| Aircraft | A319/M-SDE3FGHIRWY/LB1 |
Departure
| Time | 2026-04-25 22:01 |
|---|---|
| Airport | Providenciales International Airport (MBPV) |
Arrival
| Time | 2026-04-25 23:24 |
|---|---|
| Airport | Princess Juliana International Airport (TNCM) |
| Time | Latitude | Longitude | Altitude | Speed | Heading |
|---|---|---|---|---|---|
| 2026-04-25 21:45 | 21.77673 | -72.27369 | 13 ft | 0 kts | 326° |
| 2026-04-25 21:54 | 21.77660 | -72.27361 | 14 ft | 4 kts | 28° |
| 2026-04-25 21:54 | 21.77643 | -72.27375 | 16 ft | 4 kts | 0° |
| 2026-04-25 21:54 | 21.77636 | -72.27372 | 13 ft | 4 kts | 220° |
| 2026-04-25 21:55 | 21.77612 | -72.27383 | 13 ft | 4 kts | 203° |
| 2026-04-25 21:55 | 21.77587 | -72.27396 | 13 ft | 4 kts | 209° |
| 2026-04-25 21:55 | 21.77576 | -72.27404 | 13 ft | 0 kts | 216° |
| 2026-04-25 21:57 | 21.77567 | -72.27411 | 14 ft | 4 kts | 212° |
| 2026-04-25 21:57 | 21.77528 | -72.27433 | 14 ft | 9 kts | 207° |
| 2026-04-25 21:58 | 21.77459 | -72.27455 | 14 ft | 13 kts | 181° |
| 2026-04-25 21:58 | 21.77411 | -72.27520 | 15 ft | 15 kts | 265° |
| 2026-04-25 21:58 | 21.77414 | -72.27646 | 15 ft | 19 kts | 273° |
| 2026-04-25 21:58 | 21.77419 | -72.27801 | 16 ft | 22 kts | 274° |
| 2026-04-25 21:59 | 21.77431 | -72.27981 | 16 ft | 26 kts | 274° |
| 2026-04-25 21:59 | 21.77444 | -72.28160 | 17 ft | 13 kts | 280° |
| 2026-04-25 21:59 | 21.77462 | -72.28171 | 17 ft | 4 kts | 348° |
| 2026-04-25 22:00 | 21.77435 | -72.28188 | 18 ft | 7 kts | 118° |
| 2026-04-25 22:00 | 21.77438 | -72.28155 | 17 ft | 0 kts | 92° |
| 2026-04-25 22:01 | 21.77437 | -72.28126 | 17 ft | 30 kts | 92° |
| 2026-04-25 22:01 | 21.77411 | -72.27524 | 15 ft | 125 kts | 93° |
| 2026-04-25 22:01 | 21.77372 | -72.26383 | 346 ft | 166 kts | 90° |
| 2026-04-25 22:01 | 21.77312 | -72.25525 | 879 ft | 169 kts | 96° |
| 2026-04-25 22:02 | 21.77058 | -72.23889 | 2140 ft | 176 kts | 100° |
| 2026-04-25 22:02 | 21.76806 | -72.22506 | 2761 ft | 200 kts | 101° |
| 2026-04-25 22:02 | 21.76505 | -72.20971 | 3440 ft | 219 kts | 104° |
| 2026-04-25 22:02 | 21.76030 | -72.19315 | 3993 ft | 246 kts | 110° |
| 2026-04-25 22:03 | 21.75407 | -72.17476 | 4682 ft | 276 kts | 109° |
| 2026-04-25 22:03 | 21.74816 | -72.15445 | 5764 ft | 286 kts | 108° |
| 2026-04-25 22:03 | 21.74222 | -72.13385 | 7013 ft | 292 kts | 109° |
| 2026-04-25 22:03 | 21.73607 | -72.11283 | 8207 ft | 297 kts | 109° |
| 2026-04-25 22:04 | 21.72972 | -72.09142 | 9377 ft | 304 kts | 109° |
| 2026-04-25 22:04 | 21.72316 | -72.06946 | 10345 ft | 317 kts | 109° |
| 2026-04-25 22:04 | 21.71610 | -72.04600 | 10907 ft | 343 kts | 109° |
| 2026-04-25 22:04 | 21.70855 | -72.02093 | 11636 ft | 359 kts | 109° |
| 2026-04-25 22:05 | 21.70078 | -71.99504 | 12599 ft | 367 kts | 109° |
| 2026-04-25 22:05 | 21.69288 | -71.96859 | 13581 ft | 375 kts | 109° |
| 2026-04-25 22:05 | 21.68496 | -71.94203 | 14445 ft | 381 kts | 109° |
| 2026-04-25 22:05 | 21.67680 | -71.91469 | 15333 ft | 386 kts | 109° |
| 2026-04-25 22:06 | 21.66854 | -71.88698 | 16224 ft | 391 kts | 109° |
| 2026-04-25 22:06 | 21.66015 | -71.85896 | 17109 ft | 397 kts | 109° |
| 2026-04-25 22:06 | 21.65161 | -71.83056 | 17989 ft | 402 kts | 109° |
| 2026-04-25 22:06 | 21.64293 | -71.80177 | 18748 ft | 408 kts | 109° |
| 2026-04-25 22:07 | 21.63412 | -71.77255 | 19467 ft | 414 kts | 110° |
| 2026-04-25 22:07 | 21.62822 | -71.75301 | 19945 ft | 418 kts | 110° |
| 2026-04-25 22:07 | 21.61610 | -71.71286 | 20896 ft | 426 kts | 110° |
| 2026-04-25 22:07 | 21.60691 | -71.68234 | 21599 ft | 432 kts | 110° |
| 2026-04-25 22:08 | 21.59757 | -71.65136 | 22298 ft | 439 kts | 110° |
| 2026-04-25 22:08 | 21.58810 | -71.61996 | 22991 ft | 445 kts | 110° |
| 2026-04-25 22:08 | 21.57850 | -71.58815 | 23628 ft | 451 kts | 110° |
| 2026-04-25 22:08 | 21.56877 | -71.55592 | 24167 ft | 457 kts | 110° |
| 2026-04-25 22:09 | 21.55888 | -71.52330 | 24711 ft | 462 kts | 110° |
| 2026-04-25 22:09 | 21.54886 | -71.49028 | 25233 ft | 467 kts | 111° |
| 2026-04-25 22:09 | 21.53871 | -71.45687 | 25755 ft | 473 kts | 111° |
| 2026-04-25 22:09 | 21.52846 | -71.42305 | 26266 ft | 479 kts | 111° |
| 2026-04-25 22:10 | 21.51811 | -71.38888 | 26769 ft | 484 kts | 111° |
| 2026-04-25 22:10 | 21.50757 | -71.35423 | 27274 ft | 490 kts | 111° |
| 2026-04-25 22:10 | 21.49693 | -71.31924 | 27783 ft | 496 kts | 111° |
| 2026-04-25 22:10 | 21.48616 | -71.28385 | 28280 ft | 501 kts | 111° |
| 2026-04-25 22:11 | 21.47527 | -71.24813 | 28773 ft | 506 kts | 112° |
| 2026-04-25 22:11 | 21.46425 | -71.21201 | 29261 ft | 512 kts | 112° |
| 2026-04-25 22:11 | 21.45309 | -71.17552 | 29732 ft | 517 kts | 112° |
| 2026-04-25 22:11 | 21.44022 | -71.13939 | 30158 ft | 518 kts | 120° |
| 2026-04-25 22:12 | 21.42315 | -71.10548 | 30548 ft | 516 kts | 128° |
| 2026-04-25 22:12 | 21.40360 | -71.07309 | 30954 ft | 519 kts | 129° |
| 2026-04-25 22:12 | 21.38383 | -71.04045 | 31360 ft | 523 kts | 129° |
| 2026-04-25 22:12 | 21.37738 | -71.02981 | 31490 ft | 524 kts | 129° |
| 2026-04-25 22:13 | 21.34394 | -70.97455 | 32157 ft | 530 kts | 129° |
| 2026-04-25 22:13 | 21.32394 | -70.94140 | 32719 ft | 528 kts | 129° |
| 2026-04-25 22:13 | 21.30426 | -70.90878 | 33338 ft | 526 kts | 129° |
| 2026-04-25 22:13 | 21.28441 | -70.87588 | 33928 ft | 525 kts | 129° |
| 2026-04-25 22:14 | 21.26456 | -70.84307 | 34470 ft | 523 kts | 129° |
| 2026-04-25 22:14 | 21.24474 | -70.81042 | 35047 ft | 521 kts | 130° |
| 2026-04-25 22:14 | 21.22498 | -70.77790 | 35639 ft | 518 kts | 130° |
| 2026-04-25 22:14 | 21.20536 | -70.74562 | 36206 ft | 516 kts | 130° |
| 2026-04-25 22:15 | 21.18581 | -70.71348 | 36759 ft | 514 kts | 130° |
| 2026-04-25 22:15 | 21.16630 | -70.68142 | 37307 ft | 511 kts | 130° |
| 2026-04-25 22:15 | 21.14691 | -70.64960 | 37849 ft | 509 kts | 130° |
| 2026-04-25 22:16 | 21.10833 | -70.58629 | 38787 ft | 506 kts | 130° |
| 2026-04-25 22:16 | 21.08908 | -70.55478 | 38908 ft | 505 kts | 130° |
| 2026-04-25 22:16 | 21.06988 | -70.52337 | 38937 ft | 503 kts | 130° |
| 2026-04-25 22:17 | 21.03811 | -70.47132 | 38933 ft | 501 kts | 130° |
| 2026-04-25 22:17 | 20.99994 | -70.40893 | 38933 ft | 501 kts | 130° |
| 2026-04-25 22:18 | 20.96173 | -70.34658 | 38938 ft | 501 kts | 130° |
| 2026-04-25 22:18 | 20.92370 | -70.28444 | 38936 ft | 498 kts | 130° |
| 2026-04-25 22:19 | 20.88576 | -70.22263 | 38940 ft | 497 kts | 130° |
| 2026-04-25 22:19 | 20.84779 | -70.16094 | 38941 ft | 496 kts | 131° |
| 2026-04-25 22:20 | 20.80994 | -70.09927 | 38947 ft | 496 kts | 131° |
| 2026-04-25 22:20 | 20.77214 | -70.03766 | 38948 ft | 496 kts | 131° |
| 2026-04-25 22:21 | 20.73419 | -69.97603 | 38948 ft | 495 kts | 131° |
| 2026-04-25 22:21 | 20.69650 | -69.91500 | 38947 ft | 495 kts | 131° |
| 2026-04-25 22:22 | 20.65838 | -69.85323 | 38937 ft | 495 kts | 131° |
| 2026-04-25 22:22 | 20.62067 | -69.79230 | 38943 ft | 494 kts | 131° |
| 2026-04-25 22:23 | 20.58278 | -69.73119 | 38944 ft | 494 kts | 131° |
| 2026-04-25 22:23 | 20.54487 | -69.67015 | 38921 ft | 493 kts | 131° |
| 2026-04-25 22:24 | 20.50702 | -69.60930 | 38936 ft | 492 kts | 131° |
| 2026-04-25 22:24 | 20.46901 | -69.54867 | 38945 ft | 491 kts | 131° |
| 2026-04-25 22:25 | 20.43093 | -69.48821 | 38939 ft | 490 kts | 132° |
| 2026-04-25 22:25 | 20.39288 | -69.42796 | 38939 ft | 490 kts | 132° |
| 2026-04-25 22:26 | 20.35476 | -69.36749 | 38927 ft | 490 kts | 131° |
| 2026-04-25 22:26 | 20.31681 | -69.30714 | 38936 ft | 490 kts | 131° |
| 2026-04-25 22:27 | 20.27885 | -69.24688 | 38930 ft | 490 kts | 132° |
| 2026-04-25 22:27 | 20.24081 | -69.18675 | 38930 ft | 490 kts | 132° |
| 2026-04-25 22:28 | 20.20301 | -69.12706 | 38926 ft | 489 kts | 132° |
| 2026-04-25 22:28 | 20.16470 | -69.06658 | 38929 ft | 489 kts | 131° |
| 2026-04-25 22:29 | 20.12686 | -69.00675 | 38930 ft | 489 kts | 132° |
| 2026-04-25 22:29 | 20.08878 | -68.94673 | 38929 ft | 489 kts | 132° |
| 2026-04-25 22:30 | 20.03162 | -68.85682 | 38916 ft | 489 kts | 131° |
| 2026-04-25 22:30 | 19.99995 | -68.80698 | 38918 ft | 489 kts | 131° |
| 2026-04-25 22:31 | 19.95571 | -68.73665 | 38925 ft | 489 kts | 131° |
| 2026-04-25 22:31 | 19.91803 | -68.67644 | 38922 ft | 489 kts | 131° |
| 2026-04-25 22:32 | 19.88025 | -68.61636 | 38920 ft | 489 kts | 131° |
| 2026-04-25 22:32 | 19.84241 | -68.55631 | 38926 ft | 489 kts | 131° |
| 2026-04-25 22:33 | 19.80457 | -68.49632 | 38923 ft | 489 kts | 131° |
| 2026-04-25 22:33 | 19.76697 | -68.43657 | 38906 ft | 489 kts | 131° |
| 2026-04-25 22:34 | 19.72915 | -68.37662 | 38921 ft | 488 kts | 131° |
| 2026-04-25 22:34 | 19.69129 | -68.31674 | 38931 ft | 488 kts | 131° |
| 2026-04-25 22:35 | 19.65346 | -68.25693 | 38931 ft | 488 kts | 131° |
| 2026-04-25 22:35 | 19.61559 | -68.19717 | 38923 ft | 488 kts | 132° |
| 2026-04-25 22:36 | 19.57771 | -68.13752 | 38924 ft | 487 kts | 133° |
| 2026-04-25 22:36 | 19.53989 | -68.07800 | 38933 ft | 487 kts | 133° |
| 2026-04-25 22:37 | 19.50196 | -68.01838 | 38939 ft | 486 kts | 133° |
| 2026-04-25 22:37 | 19.46421 | -67.95887 | 38940 ft | 486 kts | 132° |
| 2026-04-25 22:38 | 19.42645 | -67.89942 | 38936 ft | 486 kts | 133° |
| 2026-04-25 22:38 | 19.38860 | -67.84007 | 38921 ft | 486 kts | 133° |
| 2026-04-25 22:39 | 19.35075 | -67.78080 | 38934 ft | 485 kts | 133° |
| 2026-04-25 22:39 | 19.31295 | -67.72151 | 38942 ft | 485 kts | 133° |
| 2026-04-25 22:40 | 19.27542 | -67.66280 | 38948 ft | 486 kts | 131° |
| 2026-04-25 22:40 | 19.24581 | -67.59674 | 38948 ft | 502 kts | 117° |
| 2026-04-25 22:41 | 19.22266 | -67.52758 | 38941 ft | 502 kts | 117° |
| 2026-04-25 22:41 | 19.19929 | -67.45802 | 38941 ft | 502 kts | 117° |
| 2026-04-25 22:42 | 19.17574 | -67.38853 | 38940 ft | 502 kts | 117° |
| 2026-04-25 22:42 | 19.15213 | -67.31895 | 38947 ft | 502 kts | 117° |
| 2026-04-25 22:43 | 19.12842 | -67.24933 | 38946 ft | 502 kts | 117° |
| 2026-04-25 22:43 | 19.10477 | -67.17984 | 38947 ft | 503 kts | 117° |
| 2026-04-25 22:44 | 19.08106 | -67.11015 | 38943 ft | 503 kts | 117° |
| 2026-04-25 22:44 | 19.05732 | -67.04053 | 38946 ft | 503 kts | 117° |
| 2026-04-25 22:45 | 19.03348 | -66.97090 | 38954 ft | 503 kts | 117° |
| 2026-04-25 22:45 | 19.00967 | -66.90135 | 38953 ft | 504 kts | 117° |
| 2026-04-25 22:46 | 18.98598 | -66.83204 | 38957 ft | 504 kts | 117° |
| 2026-04-25 22:46 | 18.96215 | -66.76244 | 38957 ft | 504 kts | 117° |
| 2026-04-25 22:47 | 18.93831 | -66.69284 | 38956 ft | 503 kts | 117° |
| 2026-04-25 22:47 | 18.91444 | -66.62335 | 38923 ft | 503 kts | 117° |
| 2026-04-25 22:48 | 18.89056 | -66.55407 | 38939 ft | 501 kts | 117° |
| 2026-04-25 22:48 | 18.86671 | -66.48490 | 38950 ft | 501 kts | 117° |
| 2026-04-25 22:49 | 18.84286 | -66.41591 | 38958 ft | 500 kts | 117° |
| 2026-04-25 22:49 | 18.81902 | -66.34693 | 38958 ft | 500 kts | 117° |
| 2026-04-25 22:50 | 18.79512 | -66.27797 | 38954 ft | 499 kts | 117° |
| 2026-04-25 22:50 | 18.77127 | -66.20916 | 38942 ft | 499 kts | 117° |
| 2026-04-25 22:51 | 18.74743 | -66.14032 | 38939 ft | 499 kts | 117° |
| 2026-04-25 22:51 | 18.72355 | -66.07163 | 38948 ft | 499 kts | 117° |
| 2026-04-25 22:52 | 18.69966 | -66.00296 | 38946 ft | 499 kts | 117° |
| 2026-04-25 22:52 | 18.67976 | -65.94587 | 38944 ft | 499 kts | 117° |
| 2026-04-25 22:53 | 18.65185 | -65.86559 | 38956 ft | 498 kts | 116° |
| 2026-04-25 22:53 | 18.62791 | -65.79718 | 38958 ft | 497 kts | 117° |
| 2026-04-25 22:54 | 18.60392 | -65.72894 | 38957 ft | 496 kts | 117° |
| 2026-04-25 22:54 | 18.58001 | -65.66066 | 38969 ft | 496 kts | 116° |
| 2026-04-25 22:55 | 18.55612 | -65.59244 | 38958 ft | 496 kts | 117° |
| 2026-04-25 22:55 | 18.53224 | -65.52435 | 38964 ft | 495 kts | 117° |
| 2026-04-25 22:56 | 18.50836 | -65.45630 | 38967 ft | 494 kts | 117° |
| 2026-04-25 22:56 | 18.48851 | -65.39995 | 38963 ft | 494 kts | 117° |
| 2026-04-25 22:57 | 18.46452 | -65.33217 | 38959 ft | 493 kts | 117° |
| 2026-04-25 22:57 | 18.43675 | -65.25331 | 38946 ft | 496 kts | 117° |
| 2026-04-25 22:58 | 18.41639 | -65.19584 | 38945 ft | 501 kts | 117° |
| 2026-04-25 22:58 | 18.39197 | -65.12691 | 38944 ft | 503 kts | 116° |
| 2026-04-25 22:59 | 18.36770 | -65.05814 | 38942 ft | 504 kts | 116° |
| 2026-04-25 22:59 | 18.34936 | -64.98628 | 38583 ft | 515 kts | 105° |
| 2026-04-25 23:00 | 18.34332 | -64.94940 | 38292 ft | 507 kts | 104° |
| 2026-04-25 23:00 | 18.33750 | -64.91299 | 38022 ft | 503 kts | 104° |
| 2026-04-25 23:00 | 18.33172 | -64.87673 | 37758 ft | 502 kts | 104° |
| 2026-04-25 23:00 | 18.32595 | -64.84057 | 37497 ft | 502 kts | 104° |
| 2026-04-25 23:01 | 18.32010 | -64.80433 | 37243 ft | 502 kts | 104° |
| 2026-04-25 23:01 | 18.31418 | -64.76801 | 36988 ft | 503 kts | 104° |
| 2026-04-25 23:01 | 18.30823 | -64.73172 | 36742 ft | 504 kts | 104° |
| 2026-04-25 23:01 | 18.30225 | -64.69537 | 36496 ft | 504 kts | 104° |
| 2026-04-25 23:02 | 18.29623 | -64.65900 | 36252 ft | 505 kts | 104° |
| 2026-04-25 23:02 | 18.29019 | -64.62247 | 36025 ft | 506 kts | 104° |
| 2026-04-25 23:02 | 18.28417 | -64.58594 | 35779 ft | 507 kts | 104° |
| 2026-04-25 23:02 | 18.27816 | -64.54934 | 35529 ft | 508 kts | 104° |
| 2026-04-25 23:03 | 18.27216 | -64.51265 | 35292 ft | 509 kts | 104° |
| 2026-04-25 23:03 | 18.26615 | -64.47592 | 35059 ft | 510 kts | 103° |
| 2026-04-25 23:03 | 18.26010 | -64.43911 | 34821 ft | 511 kts | 103° |
| 2026-04-25 23:03 | 18.25401 | -64.40228 | 34592 ft | 512 kts | 103° |
| 2026-04-25 23:04 | 18.24791 | -64.36538 | 34369 ft | 512 kts | 103° |
| 2026-04-25 23:04 | 18.24182 | -64.32841 | 33802 ft | 513 kts | 103° |
| 2026-04-25 23:04 | 18.23564 | -64.29114 | 32418 ft | 522 kts | 103° |
| 2026-04-25 23:04 | 18.22931 | -64.25326 | 31078 ft | 530 kts | 103° |
| 2026-04-25 23:05 | 18.22286 | -64.21492 | 29926 ft | 533 kts | 102° |
| 2026-04-25 23:05 | 18.21647 | -64.17674 | 28944 ft | 527 kts | 102° |
| 2026-04-25 23:05 | 18.21018 | -64.13895 | 27894 ft | 522 kts | 102° |
| 2026-04-25 23:05 | 18.20397 | -64.10154 | 26999 ft | 515 kts | 102° |
| 2026-04-25 23:06 | 18.19787 | -64.06473 | 26150 ft | 506 kts | 102° |
| 2026-04-25 23:06 | 18.19187 | -64.02860 | 25324 ft | 497 kts | 102° |
| 2026-04-25 23:06 | 18.18594 | -63.99313 | 24525 ft | 488 kts | 102° |
| 2026-04-25 23:06 | 18.18009 | -63.95825 | 23748 ft | 480 kts | 102° |
| 2026-04-25 23:07 | 18.17430 | -63.92392 | 22904 ft | 473 kts | 102° |
| 2026-04-25 23:07 | 18.16858 | -63.89014 | 22042 ft | 466 kts | 102° |
| 2026-04-25 23:07 | 18.16294 | -63.85676 | 21229 ft | 460 kts | 102° |
| 2026-04-25 23:07 | 18.15742 | -63.82390 | 20455 ft | 453 kts | 102° |
| 2026-04-25 23:08 | 18.15196 | -63.79142 | 19747 ft | 448 kts | 102° |
| 2026-04-25 23:08 | 18.14658 | -63.75942 | 19123 ft | 441 kts | 102° |
| 2026-04-25 23:08 | 18.14128 | -63.72787 | 18484 ft | 436 kts | 102° |
| 2026-04-25 23:08 | 18.13607 | -63.69659 | 17751 ft | 433 kts | 101° |
| 2026-04-25 23:09 | 18.13102 | -63.66542 | 17014 ft | 431 kts | 101° |
| 2026-04-25 23:09 | 18.12599 | -63.63445 | 16329 ft | 428 kts | 101° |
| 2026-04-25 23:09 | 18.12105 | -63.60401 | 16046 ft | 414 kts | 101° |
| 2026-04-25 23:09 | 18.11638 | -63.57504 | 15845 ft | 401 kts | 101° |
| 2026-04-25 23:10 | 18.11041 | -63.54624 | 15250 ft | 396 kts | 111° |
| 2026-04-25 23:10 | 18.09744 | -63.52165 | 14653 ft | 387 kts | 131° |
| 2026-04-25 23:10 | 18.07861 | -63.50182 | 14061 ft | 380 kts | 140° |
| 2026-04-25 23:10 | 18.05832 | -63.48425 | 13437 ft | 376 kts | 145° |
| 2026-04-25 23:11 | 18.03705 | -63.46870 | 12788 ft | 370 kts | 150° |
| 2026-04-25 23:11 | 18.01542 | -63.45429 | 12141 ft | 366 kts | 150° |
| 2026-04-25 23:11 | 17.99392 | -63.44018 | 11478 ft | 362 kts | 151° |
| 2026-04-25 23:11 | 17.97104 | -63.42995 | 10848 ft | 355 kts | 165° |
| 2026-04-25 23:12 | 17.94754 | -63.42246 | 10216 ft | 351 kts | 165° |
| 2026-04-25 23:12 | 17.92418 | -63.41519 | 9542 ft | 349 kts | 165° |
| 2026-04-25 23:12 | 17.90065 | -63.41001 | 8860 ft | 342 kts | 179° |
| 2026-04-25 23:12 | 17.87785 | -63.41378 | 8313 ft | 325 kts | 202° |
| 2026-04-25 23:13 | 17.85930 | -63.42617 | 7778 ft | 312 kts | 225° |
| 2026-04-25 23:13 | 17.84779 | -63.44482 | 7252 ft | 302 kts | 249° |
| 2026-04-25 23:13 | 17.84206 | -63.46569 | 6741 ft | 294 kts | 255° |
| 2026-04-25 23:13 | 17.83717 | -63.48618 | 6267 ft | 285 kts | 255° |
| 2026-04-25 23:14 | 17.83252 | -63.50616 | 5776 ft | 278 kts | 255° |
| 2026-04-25 23:14 | 17.82993 | -63.52589 | 5316 ft | 272 kts | 273° |
| 2026-04-25 23:14 | 17.83583 | -63.54453 | 4961 ft | 273 kts | 301° |
| 2026-04-25 23:14 | 17.84940 | -63.55804 | 4624 ft | 276 kts | 329° |
| 2026-04-25 23:15 | 17.86748 | -63.56482 | 4276 ft | 277 kts | 344° |
| 2026-04-25 23:15 | 17.88612 | -63.56979 | 3965 ft | 276 kts | 345° |
| 2026-04-25 23:15 | 17.90485 | -63.57383 | 3669 ft | 274 kts | 356° |
| 2026-04-25 23:15 | 17.92311 | -63.57020 | 3379 ft | 265 kts | 26° |
| 2026-04-25 23:16 | 17.93671 | -63.55815 | 3187 ft | 252 kts | 58° |
| 2026-04-25 23:16 | 17.94435 | -63.54179 | 3097 ft | 249 kts | 70° |
| 2026-04-25 23:16 | 17.95083 | -63.52494 | 3022 ft | 249 kts | 70° |
| 2026-04-25 23:16 | 17.95718 | -63.50806 | 2949 ft | 248 kts | 70° |
| 2026-04-25 23:17 | 17.96349 | -63.49116 | 2870 ft | 248 kts | 70° |
| 2026-04-25 23:17 | 17.96900 | -63.47409 | 2797 ft | 247 kts | 75° |
| 2026-04-25 23:17 | 17.97387 | -63.45685 | 2723 ft | 246 kts | 75° |
| 2026-04-25 23:17 | 17.97866 | -63.43962 | 2654 ft | 246 kts | 75° |
| 2026-04-25 23:18 | 17.98343 | -63.42240 | 2584 ft | 245 kts | 75° |
| 2026-04-25 23:18 | 17.98815 | -63.40530 | 2499 ft | 242 kts | 75° |
| 2026-04-25 23:18 | 17.99248 | -63.38833 | 2425 ft | 239 kts | 77° |
| 2026-04-25 23:18 | 17.99648 | -63.37165 | 2363 ft | 230 kts | 77° |
| 2026-04-25 23:19 | 18.00032 | -63.35551 | 2313 ft | 225 kts | 77° |
| 2026-04-25 23:19 | 18.00399 | -63.33977 | 2263 ft | 217 kts | 78° |
| 2026-04-25 23:19 | 18.00743 | -63.32465 | 2184 ft | 210 kts | 78° |
| 2026-04-25 23:19 | 18.01078 | -63.30991 | 2092 ft | 206 kts | 77° |
| 2026-04-25 23:20 | 18.01407 | -63.29540 | 2050 ft | 200 kts | 78° |
| 2026-04-25 23:20 | 18.01660 | -63.28119 | 2056 ft | 196 kts | 82° |
| 2026-04-25 23:20 | 18.01862 | -63.26711 | 2059 ft | 194 kts | 83° |
| 2026-04-25 23:20 | 18.02051 | -63.25326 | 2060 ft | 194 kts | 83° |
| 2026-04-25 23:21 | 18.02244 | -63.23931 | 2057 ft | 190 kts | 83° |
| 2026-04-25 23:21 | 18.02432 | -63.22585 | 2005 ft | 182 kts | 83° |
| 2026-04-25 23:21 | 18.02617 | -63.21276 | 1769 ft | 180 kts | 82° |
| 2026-04-25 23:21 | 18.02803 | -63.19973 | 1698 ft | 180 kts | 82° |
| 2026-04-25 23:22 | 18.02974 | -63.18758 | 1685 ft | 152 kts | 82° |
| 2026-04-25 23:22 | 18.03139 | -63.17705 | 1332 ft | 143 kts | 81° |
| 2026-04-25 23:22 | 18.03307 | -63.16701 | 1033 ft | 135 kts | 80° |
| 2026-04-25 23:23 | 18.03554 | -63.14848 | 527 ft | 122 kts | 86° |
| 2026-04-25 23:23 | 18.03649 | -63.13992 | 381 ft | 116 kts | 82° |
| 2026-04-25 23:23 | 18.03781 | -63.13159 | 278 ft | 115 kts | 82° |
| 2026-04-25 23:23 | 18.03902 | -63.12337 | 174 ft | 112 kts | 86° |
| 2026-04-25 23:24 | 18.04012 | -63.11526 | 46 ft | 112 kts | 83° |
| 2026-04-25 23:24 | 18.04106 | -63.10763 | 21 ft | 88 kts | 83° |
| 2026-04-25 23:24 | 18.04176 | -63.10302 | 20 ft | 39 kts | 79° |
| 2026-04-25 23:24 | 18.04209 | -63.10084 | 20 ft | 29 kts | 82° |
| 2026-04-25 23:25 | 18.04260 | -63.09917 | 20 ft | 14 kts | 51° |
| 2026-04-25 23:25 | 18.04252 | -63.09843 | 21 ft | 13 kts | 186° |
| 2026-04-25 23:25 | 18.04226 | -63.09941 | 20 ft | 17 kts | 264° |
| 2026-04-25 23:25 | 18.04213 | -63.10078 | 19 ft | 21 kts | 263° |
| 2026-04-25 23:26 | 18.04191 | -63.10241 | 20 ft | 24 kts | 262° |
| 2026-04-25 23:26 | 18.04163 | -63.10429 | 23 ft | 27 kts | 258° |
| 2026-04-25 23:26 | 18.04131 | -63.10633 | 25 ft | 28 kts | 262° |
| 2026-04-25 23:26 | 18.04100 | -63.10834 | 21 ft | 27 kts | 259° |
| 2026-04-25 23:27 | 18.04097 | -63.10984 | 23 ft | 12 kts | 315° |
| 2026-04-25 23:27 | 18.04162 | -63.11007 | 22 ft | 10 kts | 313° |
| 2026-04-25 23:27 | 18.04166 | -63.11072 | 22 ft | 9 kts | 265° |
| 2026-04-25 23:27 | 18.04158 | -63.11130 | 22 ft | 8 kts | 260° |
| 2026-04-25 23:28 | 18.04149 | -63.11184 | 22 ft | 7 kts | 261° |
| 2026-04-25 23:28 | 18.04142 | -63.11233 | 21 ft | 7 kts | 261° |
| 2026-04-25 23:28 | 18.04135 | -63.11279 | 21 ft | 6 kts | 268° |
| 2026-04-25 23:28 | 18.04152 | -63.11305 | 22 ft | 3 kts | 345° |
| 2026-04-25 23:29 | 18.04170 | -63.11306 | 21 ft | 3 kts | 355° |
| 2026-04-25 23:29 | 18.04197 | -63.11309 | 22 ft | 5 kts | 351° |
| 2026-04-25 23:29 | 18.04231 | -63.11339 | 22 ft | 8 kts | 300° |
| 2026-04-25 23:29 | 18.04233 | -63.11405 | 21 ft | 11 kts | 261° |
| 2026-04-25 23:30 | 18.04234 | -63.11481 | 23 ft | 10 kts | 306° |
| 2026-04-25 23:30 | 18.04292 | -63.11495 | 23 ft | 8 kts | 352° |
| 2026-04-25 23:30 | 18.04302 | -63.11497 | 21 ft | 0 kts | 351° |